sensor_id;sensor_type;location;lat;lon;timestamp;P1;durP1;ratioP1;P2;durP2;ratioP2
50569;SDS011;36525;49.398;7.614;2023-04-03T00:01:45;3.80;;;2.10;;
50569;SDS011;36525;49.398;7.614;2023-04-03T00:04:12;5.07;;;2.00;;
50569;SDS011;36525;49.398;7.614;2023-04-03T00:06:39;4.10;;;2.15;;
50569;SDS011;36525;49.398;7.614;2023-04-03T00:09:06;4.53;;;1.90;;
50569;SDS011;36525;49.398;7.614;2023-04-03T00:11:35;5.60;;;2.22;;
50569;SDS011;36525;49.398;7.614;2023-04-03T00:14:02;2.92;;;1.75;;
50569;SDS011;36525;49.398;7.614;2023-04-03T00:16:32;2.63;;;1.70;;
50569;SDS011;36525;49.398;7.614;2023-04-03T00:18:59;5.03;;;1.80;;
50569;SDS011;36525;49.398;7.614;2023-04-03T00:21:26;7.03;;;2.00;;
50569;SDS011;36525;49.398;7.614;2023-04-03T00:23:53;4.85;;;2.30;;
50569;SDS011;36525;49.398;7.614;2023-04-03T00:26:20;3.40;;;1.88;;
50569;SDS011;36525;49.398;7.614;2023-04-03T00:28:48;6.28;;;1.85;;
50569;SDS011;36525;49.398;7.614;2023-04-03T00:31:15;6.32;;;2.22;;
50569;SDS011;36525;49.398;7.614;2023-04-03T00:33:42;3.92;;;2.20;;
50569;SDS011;36525;49.398;7.614;2023-04-03T00:36:09;3.65;;;1.90;;
50569;SDS011;36525;49.398;7.614;2023-04-03T00:38:38;6.47;;;2.15;;
50569;SDS011;36525;49.398;7.614;2023-04-03T00:41:06;3.72;;;2.05;;
50569;SDS011;36525;49.398;7.614;2023-04-03T00:43:33;5.35;;;2.00;;
50569;SDS011;36525;49.398;7.614;2023-04-03T00:46:01;3.78;;;1.98;;
50569;SDS011;36525;49.398;7.614;2023-04-03T00:48:31;3.05;;;1.73;;
50569;SDS011;36525;49.398;7.614;2023-04-03T00:51:02;4.45;;;1.95;;
50569;SDS011;36525;49.398;7.614;2023-04-03T00:53:40;3.67;;;1.90;;
50569;SDS011;36525;49.398;7.614;2023-04-03T00:56:16;3.80;;;2.03;;
50569;SDS011;36525;49.398;7.614;2023-04-03T00:58:55;3.85;;;1.90;;
50569;SDS011;36525;49.398;7.614;2023-04-03T01:01:23;4.18;;;2.20;;
50569;SDS011;36525;49.398;7.614;2023-04-03T01:03:54;4.45;;;2.05;;
50569;SDS011;36525;49.398;7.614;2023-04-03T01:06:26;5.32;;;2.60;;
50569;SDS011;36525;49.398;7.614;2023-04-03T01:08:57;4.75;;;2.22;;
50569;SDS011;36525;49.398;7.614;2023-04-03T01:11:25;4.05;;;2.25;;
50569;SDS011;36525;49.398;7.614;2023-04-03T01:13:53;3.95;;;2.50;;
50569;SDS011;36525;49.398;7.614;2023-04-03T01:16:20;5.05;;;2.00;;
50569;SDS011;36525;49.398;7.614;2023-04-03T01:18:48;4.60;;;2.42;;
50569;SDS011;36525;49.398;7.614;2023-04-03T01:21:26;6.78;;;2.40;;
50569;SDS011;36525;49.398;7.614;2023-04-03T01:24:33;6.88;;;2.67;;
50569;SDS011;36525;49.398;7.614;2023-04-03T01:27:03;4.80;;;2.33;;
50569;SDS011;36525;49.398;7.614;2023-04-03T01:29:33;4.75;;;2.13;;
50569;SDS011;36525;49.398;7.614;2023-04-03T01:32:01;5.68;;;2.70;;
50569;SDS011;36525;49.398;7.614;2023-04-03T01:34:29;5.20;;;2.00;;
50569;SDS011;36525;49.398;7.614;2023-04-03T01:36:57;5.10;;;2.13;;
50569;SDS011;36525;49.398;7.614;2023-04-03T01:39:24;3.60;;;2.25;;
50569;SDS011;36525;49.398;7.614;2023-04-03T01:41:52;4.85;;;2.05;;
50569;SDS011;36525;49.398;7.614;2023-04-03T01:44:19;6.57;;;2.75;;
50569;SDS011;36525;49.398;7.614;2023-04-03T01:46:46;4.82;;;2.53;;
50569;SDS011;36525;49.398;7.614;2023-04-03T01:49:13;4.40;;;2.17;;
50569;SDS011;36525;49.398;7.614;2023-04-03T01:51:41;4.28;;;2.40;;
50569;SDS011;36525;49.398;7.614;2023-04-03T01:54:07;5.13;;;2.65;;
50569;SDS011;36525;49.398;7.614;2023-04-03T01:56:35;3.38;;;1.80;;
50569;SDS011;36525;49.398;7.614;2023-04-03T01:59:02;4.32;;;2.05;;
50569;SDS011;36525;49.398;7.614;2023-04-03T02:01:29;7.18;;;2.53;;
50569;SDS011;36525;49.398;7.614;2023-04-03T02:03:56;4.18;;;2.25;;
50569;SDS011;36525;49.398;7.614;2023-04-03T02:06:23;3.97;;;2.05;;
50569;SDS011;36525;49.398;7.614;2023-04-03T02:08:51;4.35;;;2.30;;
50569;SDS011;36525;49.398;7.614;2023-04-03T02:11:18;5.82;;;2.10;;
50569;SDS011;36525;49.398;7.614;2023-04-03T02:13:46;7.13;;;2.78;;
50569;SDS011;36525;49.398;7.614;2023-04-03T02:16:13;5.75;;;2.63;;
50569;SDS011;36525;49.398;7.614;2023-04-03T02:18:40;4.93;;;2.28;;
50569;SDS011;36525;49.398;7.614;2023-04-03T02:21:07;6.72;;;2.85;;
50569;SDS011;36525;49.398;7.614;2023-04-03T02:23:34;4.35;;;2.22;;
50569;SDS011;36525;49.398;7.614;2023-04-03T02:26:09;4.60;;;2.10;;
50569;SDS011;36525;49.398;7.614;2023-04-03T02:28:39;5.60;;;2.15;;
50569;SDS011;36525;49.398;7.614;2023-04-03T02:31:10;3.15;;;2.13;;
50569;SDS011;36525;49.398;7.614;2023-04-03T02:33:38;3.83;;;2.13;;
50569;SDS011;36525;49.398;7.614;2023-04-03T02:36:06;5.80;;;2.10;;
50569;SDS011;36525;49.398;7.614;2023-04-03T02:38:40;5.50;;;2.20;;
50569;SDS011;36525;49.398;7.614;2023-04-03T02:41:08;7.13;;;2.60;;
50569;SDS011;36525;49.398;7.614;2023-04-03T02:43:37;6.25;;;2.58;;
50569;SDS011;36525;49.398;7.614;2023-04-03T02:46:06;5.00;;;2.10;;
50569;SDS011;36525;49.398;7.614;2023-04-03T02:48:34;4.82;;;2.33;;
50569;SDS011;36525;49.398;7.614;2023-04-03T02:51:01;5.05;;;2.28;;
50569;SDS011;36525;49.398;7.614;2023-04-03T02:53:29;5.43;;;2.47;;
50569;SDS011;36525;49.398;7.614;2023-04-03T02:55:56;7.60;;;2.72;;
50569;SDS011;36525;49.398;7.614;2023-04-03T02:58:25;6.22;;;2.78;;
50569;SDS011;36525;49.398;7.614;2023-04-03T03:01:08;5.82;;;2.55;;
50569;SDS011;36525;49.398;7.614;2023-04-03T03:03:35;4.43;;;2.90;;
50569;SDS011;36525;49.398;7.614;2023-04-03T03:06:07;5.47;;;2.40;;
50569;SDS011;36525;49.398;7.614;2023-04-03T03:08:38;5.55;;;2.45;;
50569;SDS011;36525;49.398;7.614;2023-04-03T03:11:06;5.53;;;2.50;;
50569;SDS011;36525;49.398;7.614;2023-04-03T03:13:33;4.00;;;2.30;;
50569;SDS011;36525;49.398;7.614;2023-04-03T03:16:01;5.70;;;2.60;;
50569;SDS011;36525;49.398;7.614;2023-04-03T03:18:29;5.60;;;2.90;;
50569;SDS011;36525;49.398;7.614;2023-04-03T03:20:57;5.53;;;2.45;;
50569;SDS011;36525;49.398;7.614;2023-04-03T03:23:29;6.60;;;2.90;;
50569;SDS011;36525;49.398;7.614;2023-04-03T03:26:01;4.38;;;2.55;;
50569;SDS011;36525;49.398;7.614;2023-04-03T03:28:31;7.43;;;2.75;;
50569;SDS011;36525;49.398;7.614;2023-04-03T03:30:59;7.63;;;2.58;;
50569;SDS011;36525;49.398;7.614;2023-04-03T03:33:27;7.57;;;3.33;;
50569;SDS011;36525;49.398;7.614;2023-04-03T03:35:55;5.80;;;2.53;;
50569;SDS011;36525;49.398;7.614;2023-04-03T03:38:23;5.35;;;2.55;;
50569;SDS011;36525;49.398;7.614;2023-04-03T03:40:52;5.20;;;2.60;;
50569;SDS011;36525;49.398;7.614;2023-04-03T03:43:19;6.22;;;2.83;;
50569;SDS011;36525;49.398;7.614;2023-04-03T03:45:49;6.10;;;2.45;;
50569;SDS011;36525;49.398;7.614;2023-04-03T03:48:21;6.72;;;2.75;;
50569;SDS011;36525;49.398;7.614;2023-04-03T03:50:48;6.07;;;3.13;;
50569;SDS011;36525;49.398;7.614;2023-04-03T03:53:16;6.63;;;2.90;;
50569;SDS011;36525;49.398;7.614;2023-04-03T03:55:44;6.60;;;3.03;;
50569;SDS011;36525;49.398;7.614;2023-04-03T03:58:12;4.20;;;2.17;;
50569;SDS011;36525;49.398;7.614;2023-04-03T04:00:39;6.10;;;2.50;;
50569;SDS011;36525;49.398;7.614;2023-04-03T04:03:07;6.82;;;2.53;;
50569;SDS011;36525;49.398;7.614;2023-04-03T04:05:34;8.02;;;2.78;;
50569;SDS011;36525;49.398;7.614;2023-04-03T04:08:01;6.00;;;2.30;;
50569;SDS011;36525;49.398;7.614;2023-04-03T04:10:29;6.57;;;3.38;;
50569;SDS011;36525;49.398;7.614;2023-04-03T04:12:56;6.40;;;3.08;;
50569;SDS011;36525;49.398;7.614;2023-04-03T04:15:24;4.90;;;2.80;;
50569;SDS011;36525;49.398;7.614;2023-04-03T04:17:52;6.07;;;2.63;;
50569;SDS011;36525;49.398;7.614;2023-04-03T04:20:19;6.13;;;3.13;;
50569;SDS011;36525;49.398;7.614;2023-04-03T04:22:47;6.78;;;2.88;;
50569;SDS011;36525;49.398;7.614;2023-04-03T04:25:14;4.15;;;2.50;;
50569;SDS011;36525;49.398;7.614;2023-04-03T04:27:41;4.70;;;2.28;;
50569;SDS011;36525;49.398;7.614;2023-04-03T04:30:09;5.70;;;2.47;;
50569;SDS011;36525;49.398;7.614;2023-04-03T04:32:37;6.93;;;2.75;;
50569;SDS011;36525;49.398;7.614;2023-04-03T04:35:04;7.03;;;2.95;;
50569;SDS011;36525;49.398;7.614;2023-04-03T04:37:32;3.85;;;2.17;;
50569;SDS011;36525;49.398;7.614;2023-04-03T04:39:59;4.60;;;2.28;;
50569;SDS011;36525;49.398;7.614;2023-04-03T04:42:26;4.95;;;2.55;;
50569;SDS011;36525;49.398;7.614;2023-04-03T04:44:54;3.85;;;2.58;;
50569;SDS011;36525;49.398;7.614;2023-04-03T04:47:22;9.15;;;2.92;;
50569;SDS011;36525;49.398;7.614;2023-04-03T04:49:49;8.18;;;2.75;;
50569;SDS011;36525;49.398;7.614;2023-04-03T04:52:20;8.85;;;3.15;;
50569;SDS011;36525;49.398;7.614;2023-04-03T04:54:57;4.53;;;2.45;;
50569;SDS011;36525;49.398;7.614;2023-04-03T04:57:24;4.45;;;2.33;;
50569;SDS011;36525;49.398;7.614;2023-04-03T04:59:51;3.95;;;2.22;;
50569;SDS011;36525;49.398;7.614;2023-04-03T05:02:18;7.18;;;2.35;;
50569;SDS011;36525;49.398;7.614;2023-04-03T05:04:45;6.53;;;2.50;;
50569;SDS011;36525;49.398;7.614;2023-04-03T05:07:12;4.28;;;2.15;;
50569;SDS011;36525;49.398;7.614;2023-04-03T05:09:39;5.22;;;2.63;;
50569;SDS011;36525;49.398;7.614;2023-04-03T05:12:08;5.30;;;2.53;;
50569;SDS011;36525;49.398;7.614;2023-04-03T05:14:35;5.63;;;2.42;;
50569;SDS011;36525;49.398;7.614;2023-04-03T05:17:02;8.43;;;2.53;;
50569;SDS011;36525;49.398;7.614;2023-04-03T05:19:29;5.57;;;2.63;;
50569;SDS011;36525;49.398;7.614;2023-04-03T05:21:56;5.30;;;2.67;;
50569;SDS011;36525;49.398;7.614;2023-04-03T05:24:26;7.03;;;2.97;;
50569;SDS011;36525;49.398;7.614;2023-04-03T05:26:53;6.40;;;2.75;;
50569;SDS011;36525;49.398;7.614;2023-04-03T05:29:21;4.22;;;2.35;;
50569;SDS011;36525;49.398;7.614;2023-04-03T05:31:51;5.82;;;2.65;;
50569;SDS011;36525;49.398;7.614;2023-04-03T05:34:18;5.63;;;2.35;;
50569;SDS011;36525;49.398;7.614;2023-04-03T05:36:45;5.03;;;1.85;;
50569;SDS011;36525;49.398;7.614;2023-04-03T05:39:13;4.65;;;1.92;;
50569;SDS011;36525;49.398;7.614;2023-04-03T05:41:40;6.22;;;2.20;;
50569;SDS011;36525;49.398;7.614;2023-04-03T05:44:07;4.63;;;2.10;;
50569;SDS011;36525;49.398;7.614;2023-04-03T05:46:33;7.22;;;1.95;;
50569;SDS011;36525;49.398;7.614;2023-04-03T05:49:01;3.55;;;1.70;;
50569;SDS011;36525;49.398;7.614;2023-04-03T05:51:30;3.10;;;2.03;;
50569;SDS011;36525;49.398;7.614;2023-04-03T05:56:45;5.32;;;2.00;;
50569;SDS011;36525;49.398;7.614;2023-04-03T05:59:12;5.68;;;2.25;;
50569;SDS011;36525;49.398;7.614;2023-04-03T06:01:39;5.13;;;2.40;;
50569;SDS011;36525;49.398;7.614;2023-04-03T06:04:06;7.25;;;2.45;;
50569;SDS011;36525;49.398;7.614;2023-04-03T06:06:54;7.13;;;2.38;;
50569;SDS011;36525;49.398;7.614;2023-04-03T06:09:24;6.47;;;2.50;;
50569;SDS011;36525;49.398;7.614;2023-04-03T06:11:57;5.95;;;2.53;;
50569;SDS011;36525;49.398;7.614;2023-04-03T06:14:25;5.18;;;2.20;;
50569;SDS011;36525;49.398;7.614;2023-04-03T06:16:53;6.43;;;2.10;;
50569;SDS011;36525;49.398;7.614;2023-04-03T06:19:21;6.22;;;2.38;;
50569;SDS011;36525;49.398;7.614;2023-04-03T06:21:48;4.55;;;2.33;;
50569;SDS011;36525;49.398;7.614;2023-04-03T06:24:17;7.97;;;2.80;;
50569;SDS011;36525;49.398;7.614;2023-04-03T06:26:45;4.15;;;2.20;;
50569;SDS011;36525;49.398;7.614;2023-04-03T06:29:12;10.52;;;3.63;;
50569;SDS011;36525;49.398;7.614;2023-04-03T06:31:39;4.80;;;2.30;;
50569;SDS011;36525;49.398;7.614;2023-04-03T06:34:06;5.50;;;2.35;;
50569;SDS011;36525;49.398;7.614;2023-04-03T06:36:35;4.95;;;2.42;;
50569;SDS011;36525;49.398;7.614;2023-04-03T06:39:02;5.30;;;2.63;;
50569;SDS011;36525;49.398;7.614;2023-04-03T06:41:30;7.32;;;2.92;;
50569;SDS011;36525;49.398;7.614;2023-04-03T06:44:01;5.43;;;2.67;;
50569;SDS011;36525;49.398;7.614;2023-04-03T06:46:29;7.25;;;2.40;;
50569;SDS011;36525;49.398;7.614;2023-04-03T06:48:56;6.78;;;2.95;;
50569;SDS011;36525;49.398;7.614;2023-04-03T06:51:24;8.88;;;2.65;;
50569;SDS011;36525;49.398;7.614;2023-04-03T06:53:55;7.22;;;2.42;;
50569;SDS011;36525;49.398;7.614;2023-04-03T06:56:25;5.40;;;1.95;;
50569;SDS011;36525;49.398;7.614;2023-04-03T06:58:53;6.15;;;2.25;;
50569;SDS011;36525;49.398;7.614;2023-04-03T07:01:22;2.85;;;1.50;;
50569;SDS011;36525;49.398;7.614;2023-04-03T07:03:52;6.63;;;2.28;;
50569;SDS011;36525;49.398;7.614;2023-04-03T07:06:19;5.82;;;2.35;;
50569;SDS011;36525;49.398;7.614;2023-04-03T07:08:47;5.85;;;2.30;;
50569;SDS011;36525;49.398;7.614;2023-04-03T07:11:15;6.15;;;1.80;;
50569;SDS011;36525;49.398;7.614;2023-04-03T07:13:45;7.22;;;1.90;;
50569;SDS011;36525;49.398;7.614;2023-04-03T07:16:13;4.80;;;1.50;;
50569;SDS011;36525;49.398;7.614;2023-04-03T07:18:40;5.85;;;2.00;;
50569;SDS011;36525;49.398;7.614;2023-04-03T07:21:07;8.25;;;1.88;;
50569;SDS011;36525;49.398;7.614;2023-04-03T07:23:34;7.07;;;2.05;;
50569;SDS011;36525;49.398;7.614;2023-04-03T07:29:34;6.10;;;2.03;;
50569;SDS011;36525;49.398;7.614;2023-04-03T07:32:02;8.43;;;1.60;;
50569;SDS011;36525;49.398;7.614;2023-04-03T07:34:30;8.43;;;2.42;;
50569;SDS011;36525;49.398;7.614;2023-04-03T07:36:57;5.32;;;1.70;;
50569;SDS011;36525;49.398;7.614;2023-04-03T07:39:25;7.35;;;2.20;;
50569;SDS011;36525;49.398;7.614;2023-04-03T07:41:52;7.15;;;2.33;;
50569;SDS011;36525;49.398;7.614;2023-04-03T07:44:20;5.53;;;1.77;;
50569;SDS011;36525;49.398;7.614;2023-04-03T07:46:47;4.88;;;1.92;;
50569;SDS011;36525;49.398;7.614;2023-04-03T07:49:14;8.00;;;2.20;;
50569;SDS011;36525;49.398;7.614;2023-04-03T07:51:43;9.63;;;2.78;;
50569;SDS011;36525;49.398;7.614;2023-04-03T07:54:10;5.68;;;2.15;;
50569;SDS011;36525;49.398;7.614;2023-04-03T07:56:37;10.73;;;2.50;;
50569;SDS011;36525;49.398;7.614;2023-04-03T07:59:05;5.28;;;1.65;;
50569;SDS011;36525;49.398;7.614;2023-04-03T08:04:58;8.48;;;1.85;;
50569;SDS011;36525;49.398;7.614;2023-04-03T08:07:25;7.10;;;1.95;;
50569;SDS011;36525;49.398;7.614;2023-04-03T08:09:53;4.38;;;1.38;;
50569;SDS011;36525;49.398;7.614;2023-04-03T08:12:20;6.07;;;1.70;;
50569;SDS011;36525;49.398;7.614;2023-04-03T08:14:47;7.20;;;1.55;;
50569;SDS011;36525;49.398;7.614;2023-04-03T08:17:14;6.07;;;1.70;;
50569;SDS011;36525;49.398;7.614;2023-04-03T08:19:41;5.95;;;1.70;;
50569;SDS011;36525;49.398;7.614;2023-04-03T08:22:08;6.32;;;1.30;;
50569;SDS011;36525;49.398;7.614;2023-04-03T08:24:35;6.68;;;1.90;;
50569;SDS011;36525;49.398;7.614;2023-04-03T08:27:04;8.95;;;2.25;;
50569;SDS011;36525;49.398;7.614;2023-04-03T08:29:32;8.70;;;2.20;;
50569;SDS011;36525;49.398;7.614;2023-04-03T08:32:00;4.45;;;1.92;;
50569;SDS011;36525;49.398;7.614;2023-04-03T08:34:27;6.90;;;1.80;;
50569;SDS011;36525;49.398;7.614;2023-04-03T08:36:54;5.45;;;1.77;;
50569;SDS011;36525;49.398;7.614;2023-04-03T08:39:21;6.70;;;1.60;;
50569;SDS011;36525;49.398;7.614;2023-04-03T08:41:48;6.22;;;1.60;;
50569;SDS011;36525;49.398;7.614;2023-04-03T08:47:12;7.35;;;1.40;;
50569;SDS011;36525;49.398;7.614;2023-04-03T08:49:58;8.57;;;1.60;;
50569;SDS011;36525;49.398;7.614;2023-04-03T08:52:36;7.00;;;1.58;;
50569;SDS011;36525;49.398;7.614;2023-04-03T08:57:43;6.50;;;1.50;;
50569;SDS011;36525;49.398;7.614;2023-04-03T09:00:20;5.40;;;1.45;;
50569;SDS011;36525;49.398;7.614;2023-04-03T09:02:52;11.02;;;1.60;;
50569;SDS011;36525;49.398;7.614;2023-04-03T09:05:35;5.78;;;1.20;;
50569;SDS011;36525;49.398;7.614;2023-04-03T09:11:09;3.65;;;1.30;;
50569;SDS011;36525;49.398;7.614;2023-04-03T09:17:42;5.70;;;1.65;;
50569;SDS011;36525;49.398;7.614;2023-04-03T09:26:03;6.82;;;1.63;;
50569;SDS011;36525;49.398;7.614;2023-04-03T09:28:40;4.60;;;1.40;;
50569;SDS011;36525;49.398;7.614;2023-04-03T09:33:50;5.88;;;1.10;;
50569;SDS011;36525;49.398;7.614;2023-04-03T09:39:18;3.85;;;1.30;;
50569;SDS011;36525;49.398;7.614;2023-04-03T09:42:06;4.65;;;1.25;;
50569;SDS011;36525;49.398;7.614;2023-04-03T09:44:56;4.82;;;1.08;;
50569;SDS011;36525;49.398;7.614;2023-04-03T09:47:32;2.97;;;1.10;;
50569;SDS011;36525;49.398;7.614;2023-04-03T09:52:48;4.03;;;1.30;;
50569;SDS011;36525;49.398;7.614;2023-04-03T09:55:21;3.38;;;0.90;;
50569;SDS011;36525;49.398;7.614;2023-04-03T09:57:57;4.03;;;1.10;;
50569;SDS011;36525;49.398;7.614;2023-04-03T10:03:01;4.75;;;1.00;;
50569;SDS011;36525;49.398;7.614;2023-04-03T10:05:36;4.38;;;1.08;;
50569;SDS011;36525;49.398;7.614;2023-04-03T10:08:10;3.45;;;1.10;;
50569;SDS011;36525;49.398;7.614;2023-04-03T10:10:42;5.38;;;1.10;;
50569;SDS011;36525;49.398;7.614;2023-04-03T10:13:14;2.95;;;0.93;;
50569;SDS011;36525;49.398;7.614;2023-04-03T10:15:51;2.92;;;1.00;;
50569;SDS011;36525;49.398;7.614;2023-04-03T10:26:57;3.58;;;0.95;;
50569;SDS011;36525;49.398;7.614;2023-04-03T10:32:49;5.47;;;0.93;;
50569;SDS011;36525;49.398;7.614;2023-04-03T10:38:43;5.22;;;1.17;;
50569;SDS011;36525;49.398;7.614;2023-04-03T10:42:03;4.03;;;0.90;;
50569;SDS011;36525;49.398;7.614;2023-04-03T10:54:08;3.22;;;1.00;;
50569;SDS011;36525;49.398;7.614;2023-04-03T10:57:08;2.80;;;0.90;;
50569;SDS011;36525;49.398;7.614;2023-04-03T11:05:02;3.95;;;1.15;;
50569;SDS011;36525;49.398;7.614;2023-04-03T11:07:37;3.72;;;0.93;;
50569;SDS011;36525;49.398;7.614;2023-04-03T11:10:42;3.53;;;0.95;;
50569;SDS011;36525;49.398;7.614;2023-04-03T11:15:43;5.10;;;1.30;;
50569;SDS011;36525;49.398;7.614;2023-04-03T11:18:17;3.15;;;0.93;;
50569;SDS011;36525;49.398;7.614;2023-04-03T11:21:09;3.35;;;0.93;;
50569;SDS011;36525;49.398;7.614;2023-04-03T11:26:27;4.63;;;1.05;;
50569;SDS011;36525;49.398;7.614;2023-04-03T11:29:00;4.20;;;1.23;;
50569;SDS011;36525;49.398;7.614;2023-04-03T11:31:38;5.57;;;1.10;;
50569;SDS011;36525;49.398;7.614;2023-04-03T11:37:03;7.50;;;1.13;;
50569;SDS011;36525;49.398;7.614;2023-04-03T11:40:18;6.30;;;1.58;;
50569;SDS011;36525;49.398;7.614;2023-04-03T11:42:54;5.07;;;1.15;;
50569;SDS011;36525;49.398;7.614;2023-04-03T11:46:06;4.40;;;1.17;;
50569;SDS011;36525;49.398;7.614;2023-04-03T11:50:58;6.63;;;1.15;;
50569;SDS011;36525;49.398;7.614;2023-04-03T11:53:35;4.05;;;1.30;;
50569;SDS011;36525;49.398;7.614;2023-04-03T11:59:15;3.95;;;1.23;;
50569;SDS011;36525;49.398;7.614;2023-04-03T12:01:48;5.68;;;1.20;;
50569;SDS011;36525;49.398;7.614;2023-04-03T12:04:24;6.53;;;1.10;;
50569;SDS011;36525;49.398;7.614;2023-04-03T12:07:11;4.18;;;1.10;;
50569;SDS011;36525;49.398;7.614;2023-04-03T12:15:21;3.90;;;1.20;;
50569;SDS011;36525;49.398;7.614;2023-04-03T12:21:19;4.90;;;1.30;;
50569;SDS011;36525;49.398;7.614;2023-04-03T12:29:33;6.00;;;1.42;;
50569;SDS011;36525;49.398;7.614;2023-04-03T12:35:40;4.88;;;1.10;;
50569;SDS011;36525;49.398;7.614;2023-04-03T12:47:22;4.60;;;1.30;;
50569;SDS011;36525;49.398;7.614;2023-04-03T12:50:16;8.27;;;1.23;;
50569;SDS011;36525;49.398;7.614;2023-04-03T12:52:57;2.72;;;0.90;;
50569;SDS011;36525;49.398;7.614;2023-04-03T12:55:30;3.15;;;1.08;;
50569;SDS011;36525;49.398;7.614;2023-04-03T12:58:13;4.47;;;1.10;;
50569;SDS011;36525;49.398;7.614;2023-04-03T13:03:30;3.33;;;1.00;;
50569;SDS011;36525;49.398;7.614;2023-04-03T13:05:59;4.43;;;1.27;;
50569;SDS011;36525;49.398;7.614;2023-04-03T13:08:30;3.30;;;1.07;;
50569;SDS011;36525;49.398;7.614;2023-04-03T13:13:38;4.68;;;1.25;;
50569;SDS011;36525;49.398;7.614;2023-04-03T13:16:09;4.05;;;1.40;;
50569;SDS011;36525;49.398;7.614;2023-04-03T13:18:38;3.90;;;1.10;;
50569;SDS011;36525;49.398;7.614;2023-04-03T13:21:06;5.07;;;1.20;;
50569;SDS011;36525;49.398;7.614;2023-04-03T13:24:05;4.00;;;0.98;;
50569;SDS011;36525;49.398;7.614;2023-04-03T13:26:41;2.58;;;0.93;;
50569;SDS011;36525;49.398;7.614;2023-04-03T13:29:21;4.10;;;1.02;;
50569;SDS011;36525;49.398;7.614;2023-04-03T13:31:57;3.95;;;1.02;;
50569;SDS011;36525;49.398;7.614;2023-04-03T13:34:27;5.53;;;1.00;;
50569;SDS011;36525;49.398;7.614;2023-04-03T13:37:11;3.20;;;0.95;;
50569;SDS011;36525;49.398;7.614;2023-04-03T13:39:59;2.97;;;0.90;;
50569;SDS011;36525;49.398;7.614;2023-04-03T13:42:30;5.55;;;1.70;;
50569;SDS011;36525;49.398;7.614;2023-04-03T13:48:16;5.07;;;1.13;;
50569;SDS011;36525;49.398;7.614;2023-04-03T13:50:54;2.83;;;0.98;;
50569;SDS011;36525;49.398;7.614;2023-04-03T13:56:34;5.00;;;1.15;;
50569;SDS011;36525;49.398;7.614;2023-04-03T14:04:25;4.13;;;1.10;;
50569;SDS011;36525;49.398;7.614;2023-04-03T14:06:57;4.13;;;1.13;;
50569;SDS011;36525;49.398;7.614;2023-04-03T14:09:25;4.95;;;1.20;;
50569;SDS011;36525;49.398;7.614;2023-04-03T14:11:54;5.18;;;1.08;;
50569;SDS011;36525;49.398;7.614;2023-04-03T14:14:27;4.65;;;1.10;;
50569;SDS011;36525;49.398;7.614;2023-04-03T14:16:59;3.33;;;1.00;;
50569;SDS011;36525;49.398;7.614;2023-04-03T14:19:30;5.30;;;1.10;;
50569;SDS011;36525;49.398;7.614;2023-04-03T14:22:10;5.30;;;1.10;;
50569;SDS011;36525;49.398;7.614;2023-04-03T14:24:45;3.33;;;1.13;;
50569;SDS011;36525;49.398;7.614;2023-04-03T14:27:23;3.10;;;1.02;;
50569;SDS011;36525;49.398;7.614;2023-04-03T14:29:59;4.15;;;1.35;;
50569;SDS011;36525;49.398;7.614;2023-04-03T14:32:26;2.78;;;1.17;;
50569;SDS011;36525;49.398;7.614;2023-04-03T14:34:55;5.82;;;1.42;;
50569;SDS011;36525;49.398;7.614;2023-04-03T14:37:25;5.13;;;1.25;;
50569;SDS011;36525;49.398;7.614;2023-04-03T14:39:56;5.97;;;1.50;;
50569;SDS011;36525;49.398;7.614;2023-04-03T14:42:27;4.65;;;1.10;;
50569;SDS011;36525;49.398;7.614;2023-04-03T14:44:59;3.88;;;1.10;;
50569;SDS011;36525;49.398;7.614;2023-04-03T14:47:29;5.03;;;1.20;;
50569;SDS011;36525;49.398;7.614;2023-04-03T14:49:59;4.22;;;1.55;;
50569;SDS011;36525;49.398;7.614;2023-04-03T14:52:29;3.60;;;1.23;;
50569;SDS011;36525;49.398;7.614;2023-04-03T14:55:00;4.13;;;1.33;;
50569;SDS011;36525;49.398;7.614;2023-04-03T15:05:25;2.67;;;1.00;;
50569;SDS011;36525;49.398;7.614;2023-04-03T15:07:53;5.05;;;1.05;;
50569;SDS011;36525;49.398;7.614;2023-04-03T15:10:26;7.68;;;1.20;;
50569;SDS011;36525;49.398;7.614;2023-04-03T15:12:56;4.93;;;1.02;;
50569;SDS011;36525;49.398;7.614;2023-04-03T15:15:24;3.83;;;1.10;;
50569;SDS011;36525;49.398;7.614;2023-04-03T15:17:55;4.65;;;1.00;;
50569;SDS011;36525;49.398;7.614;2023-04-03T15:20:27;3.10;;;1.05;;
50569;SDS011;36525;49.398;7.614;2023-04-03T15:22:57;3.70;;;1.23;;
50569;SDS011;36525;49.398;7.614;2023-04-03T15:25:27;4.13;;;1.15;;
50569;SDS011;36525;49.398;7.614;2023-04-03T15:27:55;3.67;;;0.90;;
50569;SDS011;36525;49.398;7.614;2023-04-03T15:30:22;7.40;;;1.83;;
50569;SDS011;36525;49.398;7.614;2023-04-03T15:32:50;4.57;;;1.10;;
50569;SDS011;36525;49.398;7.614;2023-04-03T15:35:17;3.47;;;1.10;;
50569;SDS011;36525;49.398;7.614;2023-04-03T15:37:44;2.83;;;1.10;;
50569;SDS011;36525;49.398;7.614;2023-04-03T15:40:12;5.28;;;1.42;;
50569;SDS011;36525;49.398;7.614;2023-04-03T15:42:40;3.15;;;1.20;;
50569;SDS011;36525;49.398;7.614;2023-04-03T15:45:07;3.55;;;1.17;;
50569;SDS011;36525;49.398;7.614;2023-04-03T15:47:36;2.78;;;1.00;;
50569;SDS011;36525;49.398;7.614;2023-04-03T15:50:03;2.90;;;1.17;;
50569;SDS011;36525;49.398;7.614;2023-04-03T15:52:33;3.17;;;0.93;;
50569;SDS011;36525;49.398;7.614;2023-04-03T15:55:01;3.22;;;1.08;;
50569;SDS011;36525;49.398;7.614;2023-04-03T15:57:29;3.60;;;1.05;;
50569;SDS011;36525;49.398;7.614;2023-04-03T15:59:56;3.67;;;1.30;;
50569;SDS011;36525;49.398;7.614;2023-04-03T16:02:23;3.70;;;0.88;;
50569;SDS011;36525;49.398;7.614;2023-04-03T16:04:54;3.38;;;1.10;;
50569;SDS011;36525;49.398;7.614;2023-04-03T16:07:21;6.57;;;1.33;;
50569;SDS011;36525;49.398;7.614;2023-04-03T16:09:48;5.03;;;1.35;;
50569;SDS011;36525;49.398;7.614;2023-04-03T16:12:15;3.03;;;1.00;;
50569;SDS011;36525;49.398;7.614;2023-04-03T16:14:42;2.75;;;1.15;;
50569;SDS011;36525;49.398;7.614;2023-04-03T16:17:09;2.28;;;0.80;;
50569;SDS011;36525;49.398;7.614;2023-04-03T16:19:36;2.85;;;1.13;;
50569;SDS011;36525;49.398;7.614;2023-04-03T16:22:04;4.43;;;1.10;;
50569;SDS011;36525;49.398;7.614;2023-04-03T16:24:32;3.70;;;1.08;;
50569;SDS011;36525;49.398;7.614;2023-04-03T16:26:59;3.33;;;1.10;;
50569;SDS011;36525;49.398;7.614;2023-04-03T16:29:26;2.45;;;0.90;;
50569;SDS011;36525;49.398;7.614;2023-04-03T16:31:53;3.67;;;1.05;;
50569;SDS011;36525;49.398;7.614;2023-04-03T16:34:20;2.80;;;1.00;;
50569;SDS011;36525;49.398;7.614;2023-04-03T16:36:48;3.20;;;1.30;;
50569;SDS011;36525;49.398;7.614;2023-04-03T16:39:15;4.28;;;1.10;;
50569;SDS011;36525;49.398;7.614;2023-04-03T16:41:42;3.42;;;0.90;;
50569;SDS011;36525;49.398;7.614;2023-04-03T16:44:09;2.60;;;1.02;;
50569;SDS011;36525;49.398;7.614;2023-04-03T16:46:37;3.95;;;0.90;;
50569;SDS011;36525;49.398;7.614;2023-04-03T16:49:04;2.85;;;0.80;;
50569;SDS011;36525;49.398;7.614;2023-04-03T16:51:31;3.60;;;0.93;;
50569;SDS011;36525;49.398;7.614;2023-04-03T16:53:58;3.05;;;1.13;;
50569;SDS011;36525;49.398;7.614;2023-04-03T16:56:25;4.03;;;1.00;;
50569;SDS011;36525;49.398;7.614;2023-04-03T16:58:53;1.83;;;0.95;;
50569;SDS011;36525;49.398;7.614;2023-04-03T17:01:21;3.97;;;1.02;;
50569;SDS011;36525;49.398;7.614;2023-04-03T17:03:49;2.60;;;1.20;;
50569;SDS011;36525;49.398;7.614;2023-04-03T17:06:17;3.45;;;1.00;;
50569;SDS011;36525;49.398;7.614;2023-04-03T17:08:47;2.85;;;0.95;;
50569;SDS011;36525;49.398;7.614;2023-04-03T17:11:16;4.95;;;1.30;;
50569;SDS011;36525;49.398;7.614;2023-04-03T17:13:44;4.32;;;1.20;;
50569;SDS011;36525;49.398;7.614;2023-04-03T17:16:13;3.83;;;1.02;;
50569;SDS011;36525;49.398;7.614;2023-04-03T17:18:42;5.05;;;1.42;;
50569;SDS011;36525;49.398;7.614;2023-04-03T17:21:10;4.50;;;1.40;;
50569;SDS011;36525;49.398;7.614;2023-04-03T17:23:38;5.13;;;1.63;;